N094FA KBFL-L52

Flight info

Callsign N094FA
Flight time N/A
Altitude 6000
Route VFR DIRECT
Aircraft C152/L-V/N

Departure

Time 2026-04-22 20:15
Airport Meadows Field (KBFL)

Arrival

Time N/A
Airport L52
Time Latitude Longitude Altitude Speed Heading
2026-04-22 20:10 35.42714 -119.04431 475 ft 0 kts 139°
2026-04-22 20:13 35.42673 -119.04390 473 ft 18 kts 140°
2026-04-22 20:13 35.42574 -119.04340 472 ft 14 kts 210°
2026-04-22 20:13 35.42538 -119.04451 471 ft 10 kts 263°
2026-04-22 20:14 35.42537 -119.04460 471 ft 0 kts 264°
2026-04-22 20:14 35.42537 -119.04462 471 ft 4 kts 264°
2026-04-22 20:14 35.42544 -119.04570 474 ft 18 kts 282°
2026-04-22 20:14 35.42720 -119.04820 499 ft 56 kts 314°
2026-04-22 20:15 35.43028 -119.05200 603 ft 67 kts 316°
2026-04-22 20:15 35.43364 -119.05605 791 ft 68 kts 316°
2026-04-22 20:15 35.43698 -119.06041 989 ft 70 kts 306°
2026-04-22 20:15 35.43751 -119.06613 1163 ft 74 kts 259°
2026-04-22 20:16 35.43555 -119.07215 1291 ft 77 kts 255°
2026-04-22 20:16 35.43364 -119.07846 1424 ft 80 kts 252°
2026-04-22 20:16 35.43127 -119.08479 1542 ft 85 kts 249°
2026-04-22 20:16 35.42879 -119.09124 1672 ft 83 kts 252°
2026-04-22 20:17 35.42645 -119.09775 1839 ft 81 kts 257°
2026-04-22 20:17 35.42465 -119.10464 1962 ft 88 kts 258°
2026-04-22 20:17 35.42259 -119.11172 2126 ft 88 kts 254°
2026-04-22 20:17 35.42027 -119.11883 2298 ft 89 kts 257°
2026-04-22 20:18 35.41838 -119.12626 2429 ft 92 kts 256°
2026-04-22 20:18 35.41616 -119.13347 2595 ft 90 kts 254°
2026-04-22 20:18 35.41374 -119.14082 2713 ft 94 kts 252°
2026-04-22 20:18 35.41141 -119.14810 2876 ft 91 kts 255°
2026-04-22 20:19 35.40947 -119.15524 3071 ft 90 kts 258°
2026-04-22 20:19 35.40768 -119.16264 3227 ft 88 kts 262°
2026-04-22 20:19 35.40623 -119.16994 3436 ft 90 kts 254°
2026-04-22 20:19 35.40441 -119.17687 3603 ft 85 kts 259°
2026-04-22 20:20 35.40307 -119.18403 3757 ft 86 kts 263°
2026-04-22 20:20 35.40181 -119.19129 3846 ft 93 kts 258°
2026-04-22 20:20 35.39999 -119.19866 4009 ft 91 kts 261°
2026-04-22 20:20 35.39877 -119.20631 4121 ft 91 kts 265°
2026-04-22 20:21 35.39857 -119.21389 4229 ft 88 kts 278°
2026-04-22 20:21 35.39918 -119.22157 4285 ft 94 kts 274°
2026-04-22 20:21 35.39751 -119.22922 4384 ft 94 kts 252°
2026-04-22 20:21 35.39518 -119.23706 4326 ft 104 kts 255°
2026-04-22 20:22 35.39307 -119.24539 4445 ft 96 kts 254°
2026-04-22 20:22 35.39085 -119.25270 4641 ft 91 kts 250°
2026-04-22 20:22 35.38818 -119.25905 4947 ft 76 kts 248°
2026-04-22 20:22 35.38617 -119.26416 5029 ft 86 kts 250°